createdAt,value
2023-02-24T00:00:06.968Z,992.79
2023-02-24T00:01:06.955Z,992.83
2023-02-24T00:02:06.999Z,992.82
2023-02-24T00:03:06.965Z,992.73
2023-02-24T00:04:06.913Z,992.76
2023-02-24T00:05:06.902Z,992.75
2023-02-24T00:06:06.893Z,992.83
2023-02-24T00:07:06.925Z,992.75
2023-02-24T00:08:06.874Z,992.79
2023-02-24T00:09:06.881Z,992.79
2023-02-24T00:10:06.852Z,992.76
2023-02-24T00:11:06.834Z,992.79
2023-02-24T00:12:06.842Z,992.69
2023-02-24T00:13:06.821Z,992.65
2023-02-24T00:14:06.807Z,992.67
2023-02-24T00:15:06.793Z,992.68
2023-02-24T00:16:06.838Z,992.67
2023-02-24T00:17:06.870Z,992.65
2023-02-24T00:18:06.789Z,992.62
2023-02-24T00:19:06.752Z,992.64
2023-02-24T00:20:06.745Z,992.67
2023-02-24T00:21:06.734Z,992.61
2023-02-24T00:22:06.737Z,992.68
2023-02-24T00:23:06.714Z,992.66
2023-02-24T00:24:06.704Z,992.62
2023-02-24T00:25:06.685Z,992.62
2023-02-24T00:26:06.705Z,992.58
2023-02-24T00:27:06.679Z,992.57
2023-02-24T00:28:06.674Z,992.57
2023-02-24T00:29:06.649Z,992.56
2023-02-24T00:30:07.542Z,992.60
2023-02-24T00:31:06.715Z,992.50
2023-02-24T00:32:06.931Z,992.53
2023-02-24T00:33:06.685Z,992.50
2023-02-24T00:34:06.605Z,992.54
2023-02-24T00:35:06.587Z,992.51
2023-02-24T00:36:06.585Z,992.54
2023-02-24T00:37:06.583Z,992.48
2023-02-24T00:38:06.558Z,992.54
2023-02-24T00:39:06.547Z,992.51
2023-02-24T00:40:06.538Z,992.55
2023-02-24T00:41:06.528Z,992.53
2023-02-24T00:42:06.581Z,992.57
2023-02-24T00:43:06.512Z,992.59
2023-02-24T00:44:06.511Z,992.62
2023-02-24T00:45:06.486Z,992.57
2023-02-24T00:46:06.514Z,992.60
2023-02-24T00:47:06.483Z,992.58
2023-02-24T00:48:06.465Z,992.61
2023-02-24T00:49:06.445Z,992.62
2023-02-24T00:50:06.437Z,992.63
2023-02-24T00:51:06.424Z,992.57
2023-02-24T00:52:06.522Z,992.58
2023-02-24T00:53:06.414Z,992.54
2023-02-24T00:54:06.395Z,992.51
2023-02-24T00:55:06.385Z,992.49
2023-02-24T00:56:06.376Z,992.49
2023-02-24T00:57:06.376Z,992.45
2023-02-24T00:58:06.356Z,992.46
2023-02-24T00:59:06.350Z,992.48
2023-02-24T01:00:06.351Z,992.49
2023-02-24T01:01:06.318Z,992.49
2023-02-24T01:02:06.344Z,992.46
2023-02-24T01:03:06.300Z,992.41
2023-02-24T01:04:06.370Z,992.45
2023-02-24T01:05:06.286Z,992.47
2023-02-24T01:06:06.298Z,992.44
2023-02-24T01:07:06.274Z,992.37
2023-02-24T01:08:06.267Z,992.37
2023-02-24T01:09:06.239Z,992.29
2023-02-24T01:10:06.222Z,992.22
2023-02-24T01:11:06.223Z,992.15
2023-02-24T01:12:06.275Z,992.25
2023-02-24T01:13:06.198Z,992.15
2023-02-24T01:14:06.180Z,992.17
2023-02-24T01:15:06.187Z,992.20
2023-02-24T01:16:06.198Z,992.21
2023-02-24T01:17:06.171Z,992.19
2023-02-24T01:18:06.135Z,992.20
2023-02-24T01:19:06.123Z,992.13
2023-02-24T01:20:06.115Z,992.14
2023-02-24T01:21:06.125Z,992.11
2023-02-24T01:22:06.108Z,992.15
2023-02-24T01:23:06.130Z,992.16
2023-02-24T01:24:06.101Z,992.12
2023-02-24T01:25:06.074Z,992.14
2023-02-24T01:26:06.056Z,992.12
2023-02-24T01:27:06.100Z,992.14
2023-02-24T01:28:06.056Z,992.13
2023-02-24T01:29:06.026Z,992.13
2023-02-24T01:30:06.008Z,992.22
2023-02-24T01:31:06.129Z,992.09
2023-02-24T01:32:06.102Z,992.15
2023-02-24T01:33:06.167Z,992.13
2023-02-24T01:34:06.052Z,992.13
2023-02-24T01:35:05.964Z,992.13
2023-02-24T01:36:05.948Z,992.14
2023-02-24T01:37:05.940Z,992.10
2023-02-24T01:38:05.950Z,992.11
2023-02-24T01:39:05.935Z,992.03
2023-02-24T01:40:05.909Z,992.07
2023-02-24T01:41:05.902Z,992.06
2023-02-24T01:42:05.890Z,992.05
2023-02-24T01:43:05.893Z,992.04
2023-02-24T01:44:05.863Z,992.05
2023-02-24T01:45:05.854Z,992.00
2023-02-24T01:46:05.856Z,992.00
2023-02-24T01:47:05.835Z,991.96
2023-02-24T01:48:05.851Z,992.00
2023-02-24T01:49:05.816Z,991.97
2023-02-24T01:50:05.804Z,991.96
2023-02-24T01:51:05.802Z,991.97
2023-02-24T01:52:05.788Z,991.99
2023-02-24T01:53:05.801Z,991.98
2023-02-24T01:54:05.763Z,992.00
2023-02-24T01:55:05.764Z,991.91
2023-02-24T01:56:05.747Z,991.94
2023-02-24T01:57:05.753Z,991.94
2023-02-24T01:58:05.743Z,991.89
2023-02-24T01:59:05.711Z,991.89
2023-02-24T02:00:05.704Z,991.86
2023-02-24T02:01:05.692Z,991.88
2023-02-24T02:02:05.812Z,991.82
2023-02-24T02:03:05.705Z,991.80
2023-02-24T02:04:05.660Z,991.81
2023-02-24T02:05:05.663Z,991.82
2023-02-24T02:06:05.658Z,991.80
2023-02-24T02:07:05.646Z,991.78
2023-02-24T02:08:05.655Z,991.84
2023-02-24T02:09:05.611Z,991.83
2023-02-24T02:10:05.602Z,991.79
2023-02-24T02:11:05.586Z,991.79
2023-02-24T02:12:05.573Z,991.78
2023-02-24T02:13:05.583Z,991.74
2023-02-24T02:14:05.578Z,991.76
2023-02-24T02:15:05.535Z,991.74
2023-02-24T02:16:05.633Z,991.72
2023-02-24T02:17:05.575Z,991.77
2023-02-24T02:18:05.540Z,991.73
2023-02-24T02:19:05.497Z,991.67
2023-02-24T02:20:05.488Z,991.69
2023-02-24T02:21:05.477Z,991.63
2023-02-24T02:22:05.479Z,991.63
2023-02-24T02:23:05.479Z,991.65
2023-02-24T02:24:05.445Z,991.67
2023-02-24T02:25:05.439Z,991.63
2023-02-24T02:26:05.436Z,991.61
2023-02-24T02:27:05.418Z,991.67
2023-02-24T02:28:05.410Z,991.59
2023-02-24T02:29:05.393Z,991.63
2023-02-24T02:30:05.379Z,991.56
2023-02-24T02:31:05.521Z,991.55
2023-02-24T02:32:05.549Z,991.57
2023-02-24T02:33:05.371Z,991.54
2023-02-24T02:34:05.347Z,991.54
2023-02-24T02:35:05.332Z,991.51
2023-02-24T02:36:05.324Z,991.49
2023-02-24T02:37:05.315Z,991.50
2023-02-24T02:38:05.317Z,991.48
2023-02-24T02:39:05.301Z,991.50
2023-02-24T02:40:05.300Z,991.49
2023-02-24T02:41:05.272Z,991.51
2023-02-24T02:42:05.256Z,991.45
2023-02-24T02:43:05.268Z,991.47
2023-02-24T02:44:05.234Z,991.47
2023-02-24T02:45:05.240Z,991.52
2023-02-24T02:46:05.275Z,991.49
2023-02-24T02:47:05.202Z,991.50
2023-02-24T02:48:05.209Z,991.48
2023-02-24T02:49:05.184Z,991.45
2023-02-24T02:50:05.163Z,991.42
2023-02-24T02:51:05.163Z,991.44
2023-02-24T02:52:05.153Z,991.38
2023-02-24T02:53:05.154Z,991.42
2023-02-24T02:54:05.162Z,991.38
2023-02-24T02:55:05.130Z,991.36
2023-02-24T02:56:05.104Z,991.35
2023-02-24T02:57:05.098Z,991.32
2023-02-24T02:58:05.095Z,991.29
2023-02-24T02:59:05.066Z,991.31
2023-02-24T03:00:05.101Z,991.27
2023-02-24T03:01:05.111Z,991.25
2023-02-24T03:02:05.034Z,991.21
2023-02-24T03:03:05.051Z,991.20
2023-02-24T03:04:05.005Z,991.19
2023-02-24T03:05:05.115Z,991.12
2023-02-24T03:06:05.001Z,991.18
2023-02-24T03:07:04.984Z,991.12
2023-02-24T03:08:05.004Z,991.12
2023-02-24T03:09:04.967Z,991.14
2023-02-24T03:10:04.956Z,991.18
2023-02-24T03:11:04.948Z,991.20
2023-02-24T03:12:04.927Z,991.24
2023-02-24T03:13:04.937Z,991.22
2023-02-24T03:14:04.905Z,991.17
2023-02-24T03:15:04.897Z,991.14
2023-02-24T03:16:04.900Z,991.11
2023-02-24T03:17:04.877Z,991.22
2023-02-24T03:18:04.879Z,991.16
2023-02-24T03:19:04.878Z,991.09
2023-02-24T03:20:04.845Z,991.11
2023-02-24T03:21:04.832Z,991.03
2023-02-24T03:22:04.831Z,991.08
2023-02-24T03:23:04.840Z,990.98
2023-02-24T03:24:04.807Z,991.03
2023-02-24T03:25:04.792Z,991.08
2023-02-24T03:26:04.778Z,991.03
2023-02-24T03:27:04.777Z,991.04
2023-02-24T03:28:04.754Z,990.97
2023-02-24T03:29:04.773Z,990.95
2023-02-24T03:30:04.736Z,990.93
2023-02-24T03:31:04.813Z,990.87
2023-02-24T03:32:04.847Z,990.84
2023-02-24T03:33:04.705Z,990.88
2023-02-24T03:34:04.713Z,990.86
2023-02-24T03:35:04.687Z,990.88
2023-02-24T03:36:04.675Z,990.83
2023-02-24T03:37:04.668Z,990.83
2023-02-24T03:38:04.663Z,990.77
2023-02-24T03:39:04.667Z,990.76
2023-02-24T03:40:04.628Z,990.72
2023-02-24T03:41:04.631Z,990.66
2023-02-24T03:42:04.609Z,990.70
2023-02-24T03:43:04.607Z,990.70
2023-02-24T03:44:04.612Z,990.69
2023-02-24T03:45:04.586Z,990.69
2023-02-24T03:46:04.622Z,990.79
2023-02-24T03:47:04.577Z,990.69
2023-02-24T03:48:04.543Z,990.72
2023-02-24T03:49:04.560Z,990.70
2023-02-24T03:50:04.525Z,990.68
2023-02-24T03:51:04.525Z,990.65
2023-02-24T03:52:04.503Z,990.68
2023-02-24T03:53:04.498Z,990.70
2023-02-24T03:54:04.512Z,990.66
2023-02-24T03:55:04.471Z,990.64
2023-02-24T03:56:04.462Z,990.67
2023-02-24T03:57:04.453Z,990.65
2023-02-24T03:58:04.440Z,990.65
2023-02-24T03:59:04.468Z,990.63
2023-02-24T04:00:04.428Z,990.65
2023-02-24T04:01:04.423Z,990.64
2023-02-24T04:02:04.443Z,990.61
2023-02-24T04:03:04.391Z,990.67
2023-02-24T04:04:04.394Z,990.66
2023-02-24T04:05:04.404Z,990.62
2023-02-24T04:06:04.356Z,990.59
2023-02-24T04:07:04.345Z,990.59
2023-02-24T04:08:04.402Z,990.60
2023-02-24T04:09:04.376Z,990.54
2023-02-24T04:10:04.339Z,990.62
2023-02-24T04:11:04.307Z,990.63
2023-02-24T04:12:04.286Z,990.62
2023-02-24T04:13:04.302Z,990.60
2023-02-24T04:14:04.285Z,990.54
2023-02-24T04:15:04.269Z,990.56
2023-02-24T04:16:04.279Z,990.56
2023-02-24T04:17:04.240Z,990.55
2023-02-24T04:18:04.247Z,990.60
2023-02-24T04:19:04.240Z,990.54
2023-02-24T04:20:04.200Z,990.54
2023-02-24T04:21:04.207Z,990.53
2023-02-24T04:22:04.184Z,990.52
2023-02-24T04:23:04.221Z,990.48
2023-02-24T04:24:04.183Z,990.55
2023-02-24T04:25:04.167Z,990.50
2023-02-24T04:26:04.146Z,990.54
2023-02-24T04:27:04.151Z,990.54
2023-02-24T04:28:04.146Z,990.56
2023-02-24T04:29:04.142Z,990.48
2023-02-24T04:30:04.107Z,990.46
2023-02-24T04:31:04.177Z,990.41
2023-02-24T04:32:04.335Z,990.40
2023-02-24T04:33:04.092Z,990.39
2023-02-24T04:34:04.084Z,990.36
2023-02-24T04:35:04.054Z,990.41
2023-02-24T04:36:04.036Z,990.41
2023-02-24T04:37:04.033Z,990.46
2023-02-24T04:38:04.016Z,990.49
2023-02-24T04:39:04.028Z,990.42
2023-02-24T04:40:04.003Z,990.42
2023-02-24T04:41:03.996Z,990.45
2023-02-24T04:42:03.986Z,990.45
2023-02-24T04:43:03.979Z,990.38
2023-02-24T04:44:03.987Z,990.32
2023-02-24T04:45:03.949Z,990.36
2023-02-24T04:46:03.959Z,990.32
2023-02-24T04:47:03.972Z,990.31
2023-02-24T04:48:03.922Z,990.32
2023-02-24T04:49:03.920Z,990.29
2023-02-24T04:50:03.897Z,990.27
2023-02-24T04:51:03.886Z,990.22
2023-02-24T04:52:03.873Z,990.27
2023-02-24T04:53:03.872Z,990.34
2023-02-24T04:54:03.869Z,990.34
2023-02-24T04:55:03.841Z,990.35
2023-02-24T04:56:03.830Z,990.33
2023-02-24T04:57:03.820Z,990.27
2023-02-24T04:58:03.810Z,990.24
2023-02-24T04:59:03.826Z,990.22
2023-02-24T05:00:03.799Z,990.29
2023-02-24T05:01:03.783Z,990.24
2023-02-24T05:02:03.763Z,990.25
2023-02-24T05:03:03.766Z,990.23
2023-02-24T05:04:03.821Z,990.22
2023-02-24T05:05:03.745Z,990.13
2023-02-24T05:06:03.727Z,990.17
2023-02-24T05:07:03.729Z,990.16
2023-02-24T05:08:03.707Z,990.12
2023-02-24T05:09:03.718Z,990.11
2023-02-24T05:10:03.684Z,990.05
2023-02-24T05:11:03.684Z,990.10
2023-02-24T05:12:03.668Z,990.05
2023-02-24T05:13:03.661Z,990.05
2023-02-24T05:14:03.660Z,990.07
2023-02-24T05:15:03.632Z,990.07
2023-02-24T05:16:03.712Z,990.04
2023-02-24T05:17:03.612Z,990.01
2023-02-24T05:18:03.602Z,989.99
2023-02-24T05:19:03.612Z,990.00
2023-02-24T05:20:03.582Z,989.99
2023-02-24T05:21:03.577Z,990.03
2023-02-24T05:22:03.573Z,990.06
2023-02-24T05:23:03.561Z,990.04
2023-02-24T05:24:03.568Z,990.08
2023-02-24T05:25:03.530Z,990.01
2023-02-24T05:26:03.523Z,990.11
2023-02-24T05:27:03.521Z,990.08
2023-02-24T05:28:03.505Z,990.05
2023-02-24T05:29:03.506Z,990.06
2023-02-24T05:30:03.497Z,990.01
2023-02-24T05:31:03.550Z,989.99
2023-02-24T05:32:03.565Z,990.02
2023-02-24T05:33:03.452Z,990.01
2023-02-24T05:34:03.463Z,989.98
2023-02-24T05:35:03.429Z,989.97
2023-02-24T05:36:04.822Z,989.95
2023-02-24T05:37:03.409Z,989.93
2023-02-24T05:38:03.400Z,989.95
2023-02-24T05:39:03.399Z,989.97
2023-02-24T05:40:03.379Z,989.91
2023-02-24T05:41:03.364Z,989.98
2023-02-24T05:42:03.353Z,989.98
2023-02-24T05:43:03.349Z,989.97
2023-02-24T05:44:03.353Z,990.00
2023-02-24T05:45:03.320Z,989.96
2023-02-24T05:46:03.317Z,989.88
2023-02-24T05:47:03.379Z,989.96
2023-02-24T05:48:03.296Z,989.97
2023-02-24T05:49:03.300Z,989.93
2023-02-24T05:50:03.270Z,989.92
2023-02-24T05:51:05.158Z,989.93
2023-02-24T05:52:03.248Z,989.88
2023-02-24T05:53:03.234Z,989.92
2023-02-24T05:54:03.260Z,989.90
2023-02-24T05:55:03.233Z,989.87
2023-02-24T05:56:03.210Z,989.94
2023-02-24T05:57:03.196Z,989.87
2023-02-24T05:58:03.190Z,989.87
2023-02-24T05:59:03.194Z,989.92
2023-02-24T06:00:03.171Z,989.86
2023-02-24T06:01:03.203Z,989.81
2023-02-24T06:02:03.227Z,989.81
2023-02-24T06:03:03.182Z,989.86
2023-02-24T06:04:03.165Z,989.81
2023-02-24T06:05:03.103Z,989.77
2023-02-24T06:06:03.105Z,989.77
2023-02-24T06:07:03.105Z,989.74
2023-02-24T06:08:03.044Z,989.74
2023-02-24T06:09:03.084Z,989.72
2023-02-24T06:10:03.064Z,989.76
2023-02-24T06:11:03.003Z,989.74
2023-02-24T06:12:03.092Z,989.69
2023-02-24T06:13:02.976Z,989.64
2023-02-24T06:14:02.997Z,989.63
2023-02-24T06:15:02.953Z,989.64
2023-02-24T06:16:03.007Z,989.66
2023-02-24T06:17:02.926Z,989.62
2023-02-24T06:18:02.943Z,989.58
2023-02-24T06:19:02.953Z,989.58
2023-02-24T06:20:02.912Z,989.55
2023-02-24T06:21:02.898Z,989.62
2023-02-24T06:22:02.988Z,989.61
2023-02-24T06:23:02.876Z,989.60
2023-02-24T06:24:02.908Z,989.59
2023-02-24T06:25:02.851Z,989.59
2023-02-24T06:26:02.845Z,989.56
2023-02-24T06:27:02.829Z,989.56
2023-02-24T06:28:02.827Z,989.53
2023-02-24T06:29:02.826Z,989.47
2023-02-24T06:30:02.814Z,989.42
2023-02-24T06:31:02.849Z,989.43
2023-02-24T06:32:02.854Z,989.47
2023-02-24T06:33:02.785Z,989.48
2023-02-24T06:34:02.799Z,989.48
2023-02-24T06:35:02.745Z,989.50
2023-02-24T06:36:02.743Z,989.49
2023-02-24T06:37:02.730Z,989.52
2023-02-24T06:38:02.716Z,989.52
2023-02-24T06:39:02.710Z,989.55
2023-02-24T06:40:02.730Z,989.56
2023-02-24T06:41:02.707Z,989.55
2023-02-24T06:42:02.687Z,989.50
2023-02-24T06:43:02.671Z,989.52
2023-02-24T06:44:02.659Z,989.45
2023-02-24T06:45:02.676Z,989.48
2023-02-24T06:46:02.693Z,989.49
2023-02-24T06:47:02.629Z,989.39
2023-02-24T06:48:02.628Z,989.44
2023-02-24T06:49:02.613Z,989.42
2023-02-24T06:50:02.640Z,989.40
2023-02-24T06:51:02.588Z,989.44
2023-02-24T06:52:02.582Z,989.42
2023-02-24T06:53:02.562Z,989.36
2023-02-24T06:54:02.565Z,989.40
2023-02-24T06:55:02.581Z,989.39
2023-02-24T06:56:02.543Z,989.42
2023-02-24T06:57:02.524Z,989.37
2023-02-24T06:58:02.516Z,989.33
2023-02-24T06:59:02.510Z,989.38
2023-02-24T07:00:02.522Z,989.26
2023-02-24T07:01:02.536Z,989.38
2023-02-24T07:02:02.484Z,989.31
2023-02-24T07:03:02.461Z,989.35
2023-02-24T07:04:02.530Z,989.36
2023-02-24T07:05:02.461Z,989.39
2023-02-24T07:06:02.434Z,989.37
2023-02-24T07:07:02.414Z,989.30
2023-02-24T07:08:02.464Z,989.36
2023-02-24T07:09:02.412Z,989.33
2023-02-24T07:10:02.414Z,989.39
2023-02-24T07:11:02.386Z,989.38
2023-02-24T07:12:02.386Z,989.38
2023-02-24T07:13:02.356Z,989.35
2023-02-24T07:14:02.361Z,989.31
2023-02-24T07:15:02.360Z,989.32
2023-02-24T07:16:02.329Z,989.33
2023-02-24T07:17:02.395Z,989.30
2023-02-24T07:18:02.309Z,989.33
2023-02-24T07:19:02.310Z,989.32
2023-02-24T07:20:02.333Z,989.29
2023-02-24T07:21:02.280Z,989.31
2023-02-24T07:22:02.286Z,989.28
2023-02-24T07:23:02.250Z,989.24
2023-02-24T07:24:02.251Z,989.26
2023-02-24T07:25:02.260Z,989.26
2023-02-24T07:26:02.232Z,989.19
2023-02-24T07:27:02.216Z,989.22
2023-02-24T07:28:02.230Z,989.19
2023-02-24T07:29:02.191Z,989.14
2023-02-24T07:30:02.204Z,989.11
2023-02-24T07:31:02.302Z,989.12
2023-02-24T07:32:02.312Z,989.19
2023-02-24T07:33:02.162Z,989.16
2023-02-24T07:34:02.167Z,989.13
2023-02-24T07:35:02.145Z,989.09
2023-02-24T07:36:02.135Z,989.11
2023-02-24T07:37:02.133Z,989.11
2023-02-24T07:38:02.140Z,989.05
2023-02-24T07:39:02.096Z,989.12
2023-02-24T07:40:02.096Z,989.12
2023-02-24T07:41:02.063Z,989.03
2023-02-24T07:42:02.059Z,988.99
2023-02-24T07:43:02.051Z,989.02
2023-02-24T07:44:02.044Z,989.01
2023-02-24T07:45:02.092Z,989.03
2023-02-24T07:46:02.024Z,988.99
2023-02-24T07:47:02.003Z,988.94
2023-02-24T07:48:02.018Z,988.94
2023-02-24T07:49:01.981Z,988.93
2023-02-24T07:50:01.996Z,988.97
2023-02-24T07:51:01.954Z,988.92
2023-02-24T07:52:02.000Z,988.93
2023-02-24T07:53:01.935Z,988.94
2023-02-24T07:54:01.945Z,988.90
2023-02-24T07:55:01.951Z,988.87
2023-02-24T07:56:02.018Z,988.89
2023-02-24T07:57:01.889Z,988.88
2023-02-24T07:58:01.894Z,988.87
2023-02-24T07:59:01.878Z,988.86
2023-02-24T08:00:01.876Z,988.78
2023-02-24T08:01:01.855Z,988.82
2023-02-24T08:02:01.845Z,988.84
2023-02-24T08:03:01.837Z,988.77
2023-02-24T08:04:01.834Z,988.77
2023-02-24T08:05:01.826Z,988.73
2023-02-24T08:06:01.798Z,988.76
2023-02-24T08:07:01.791Z,988.74
2023-02-24T08:08:01.788Z,988.73
2023-02-24T08:09:01.768Z,988.70
2023-02-24T08:10:01.790Z,988.67
2023-02-24T08:11:01.748Z,988.63
2023-02-24T08:12:01.745Z,988.54
2023-02-24T08:13:01.730Z,988.52
2023-02-24T08:14:01.721Z,988.47
2023-02-24T08:15:01.741Z,988.46
2023-02-24T08:16:01.721Z,988.44
2023-02-24T08:17:01.744Z,988.37
2023-02-24T08:18:01.676Z,988.36
2023-02-24T08:19:01.661Z,988.30
2023-02-24T08:20:02.161Z,988.32
2023-02-24T08:21:01.643Z,988.29
2023-02-24T08:22:01.654Z,988.31
2023-02-24T08:23:01.632Z,988.18
2023-02-24T08:24:01.614Z,988.21
2023-02-24T08:25:01.623Z,988.21
2023-02-24T08:26:01.624Z,988.16
2023-02-24T08:27:01.582Z,988.16
2023-02-24T08:28:07.822Z,988.14
2023-02-24T08:29:02.555Z,988.12
2023-02-24T08:30:01.598Z,988.13
2023-02-24T08:31:01.656Z,988.14
2023-02-24T08:32:01.579Z,988.11
2023-02-24T08:33:01.519Z,988.11
2023-02-24T08:34:01.529Z,988.04
2023-02-24T08:35:01.517Z,988.07
2023-02-24T08:36:02.059Z,988.02
2023-02-24T08:37:01.477Z,988.00
2023-02-24T08:38:01.475Z,988.01
2023-02-24T08:39:01.459Z,988.04
2023-02-24T08:40:01.498Z,987.96
2023-02-24T08:41:01.437Z,987.98
2023-02-24T08:42:01.435Z,987.91
2023-02-24T08:43:01.412Z,987.91
2023-02-24T08:44:01.410Z,987.93
2023-02-24T08:45:01.410Z,987.91
2023-02-24T08:46:01.394Z,987.94
2023-02-24T08:47:01.419Z,987.98
2023-02-24T08:48:01.371Z,987.91
2023-02-24T08:49:01.400Z,987.90
2023-02-24T08:50:01.366Z,987.87
2023-02-24T08:51:01.340Z,987.84
2023-02-24T08:52:01.336Z,987.90
2023-02-24T08:53:01.315Z,987.81
2023-02-24T08:54:01.325Z,987.85
2023-02-24T08:55:01.320Z,987.82
2023-02-24T08:56:01.290Z,987.76
2023-02-24T08:57:01.280Z,987.83
2023-02-24T08:58:01.270Z,987.78
2023-02-24T08:59:01.254Z,987.73
2023-02-24T09:00:01.271Z,987.75
2023-02-24T09:01:01.334Z,987.76
2023-02-24T09:02:04.696Z,987.66
2023-02-24T09:03:01.212Z,987.67
2023-02-24T09:04:01.209Z,987.60
2023-02-24T09:05:01.261Z,987.63
2023-02-24T09:06:01.205Z,987.56
2023-02-24T09:07:11.221Z,987.54
2023-02-24T09:08:02.184Z,987.57
2023-02-24T09:09:01.152Z,987.55
2023-02-24T09:10:01.154Z,987.57
2023-02-24T09:11:01.153Z,987.55
2023-02-24T09:12:01.127Z,987.50
2023-02-24T09:13:01.108Z,987.48
2023-02-24T09:14:01.111Z,987.47
2023-02-24T09:15:01.161Z,987.44
2023-02-24T09:16:01.123Z,987.46
2023-02-24T09:17:01.085Z,987.41
2023-02-24T09:18:01.062Z,987.41
2023-02-24T09:19:01.052Z,987.35
2023-02-24T09:20:01.041Z,987.33
2023-02-24T09:21:01.060Z,987.32
2023-02-24T09:22:01.837Z,987.36
2023-02-24T09:23:01.008Z,987.34
2023-02-24T09:24:01.003Z,987.35
2023-02-24T09:25:00.998Z,987.29
2023-02-24T09:26:01.000Z,987.24
2023-02-24T09:27:00.962Z,987.22
2023-02-24T09:28:00.960Z,987.24
2023-02-24T09:29:00.944Z,987.19
2023-02-24T09:30:00.939Z,987.19
2023-02-24T09:31:00.960Z,987.11
2023-02-24T09:32:01.006Z,987.13
2023-02-24T09:33:01.078Z,987.10
2023-02-24T09:34:00.891Z,987.09
2023-02-24T09:35:00.901Z,987.07
2023-02-24T09:36:00.912Z,987.11
2023-02-24T09:37:00.864Z,987.05
2023-02-24T09:38:00.857Z,987.06
2023-02-24T09:39:01.091Z,986.96
2023-02-24T09:40:00.824Z,986.96
2023-02-24T09:41:07.474Z,987.06
2023-02-24T09:42:01.837Z,986.94
2023-02-24T09:43:00.807Z,986.98
2023-02-24T09:44:00.797Z,986.90
2023-02-24T09:45:00.802Z,986.94
2023-02-24T09:46:00.924Z,986.93
2023-02-24T09:47:00.811Z,986.94
2023-02-24T09:48:00.748Z,987.00
2023-02-24T09:49:00.737Z,986.90
2023-02-24T09:50:00.773Z,986.87
2023-02-24T09:51:03.593Z,986.88
2023-02-24T09:52:00.892Z,986.89
2023-02-24T09:53:10.757Z,986.92
2023-02-24T09:54:01.677Z,986.89
2023-02-24T09:55:00.706Z,986.81
2023-02-24T09:56:00.683Z,986.82
2023-02-24T09:57:00.660Z,986.86
2023-02-24T09:58:00.701Z,986.87
2023-02-24T09:59:00.645Z,986.87
2023-02-24T10:00:00.690Z,986.86
2023-02-24T10:01:00.672Z,986.87
2023-02-24T10:02:00.693Z,986.86
2023-02-24T10:03:00.600Z,986.78
2023-02-24T10:04:02.363Z,986.74
2023-02-24T10:05:01.623Z,986.78
2023-02-24T10:06:00.581Z,986.76
2023-02-24T10:07:00.639Z,986.76
2023-02-24T10:08:00.533Z,986.77
2023-02-24T10:09:00.534Z,986.79
2023-02-24T10:10:00.522Z,986.77
2023-02-24T10:11:00.536Z,986.68
2023-02-24T10:12:00.495Z,986.68
2023-02-24T10:13:00.525Z,986.72
2023-02-24T10:14:03.721Z,986.66
2023-02-24T10:15:00.782Z,986.67
2023-02-24T10:16:06.226Z,986.73
2023-02-24T10:17:01.670Z,986.73
2023-02-24T10:18:00.438Z,986.72
2023-02-24T10:19:00.436Z,986.69
2023-02-24T10:20:00.479Z,986.70
2023-02-24T10:21:00.482Z,986.70
2023-02-24T10:22:00.495Z,986.66
2023-02-24T10:23:00.386Z,986.66
2023-02-24T10:24:00.370Z,986.65
2023-02-24T10:25:00.359Z,986.60
2023-02-24T10:26:06.759Z,986.59
2023-02-24T10:27:08.178Z,986.62
2023-02-24T10:28:01.334Z,986.65
2023-02-24T10:29:00.333Z,986.69
2023-02-24T10:30:00.349Z,986.68
2023-02-24T10:31:00.439Z,986.68
2023-02-24T10:32:00.542Z,986.67
2023-02-24T10:33:00.365Z,986.67
2023-02-24T10:34:00.265Z,986.66
2023-02-24T10:35:00.261Z,986.68
2023-02-24T10:36:00.243Z,986.65
2023-02-24T10:37:00.272Z,986.65
2023-02-24T10:38:00.223Z,986.63
2023-02-24T10:39:00.224Z,986.59
2023-02-24T10:40:00.206Z,986.58
2023-02-24T10:41:00.206Z,986.60
2023-02-24T10:42:00.209Z,986.55
2023-02-24T10:43:00.177Z,986.57
2023-02-24T10:44:00.322Z,986.59
2023-02-24T10:45:02.797Z,986.56
2023-02-24T10:46:00.185Z,986.56
2023-02-24T10:47:00.377Z,986.66
2023-02-24T10:48:00.126Z,986.58
2023-02-24T10:49:00.116Z,986.57
2023-02-24T10:50:00.125Z,986.48
2023-02-24T10:51:00.115Z,986.46
2023-02-24T10:52:00.112Z,986.47
2023-02-24T10:53:00.094Z,986.44
2023-02-24T10:54:00.062Z,986.43
2023-02-24T10:55:00.097Z,986.47
2023-02-24T10:56:00.045Z,986.43
2023-02-24T10:57:00.052Z,986.45
2023-02-24T10:58:00.018Z,986.40
2023-02-24T10:59:01.803Z,986.42
2023-02-24T10:59:59.993Z,986.35
2023-02-24T11:01:00.035Z,986.31
2023-02-24T11:02:00.001Z,986.29
2023-02-24T11:02:59.969Z,986.25
2023-02-24T11:03:59.963Z,986.26
2023-02-24T11:05:01.201Z,986.24
2023-02-24T11:05:59.931Z,986.18
2023-02-24T11:06:59.940Z,986.23
2023-02-24T11:07:59.910Z,986.21
2023-02-24T11:08:59.910Z,986.20
2023-02-24T11:09:59.912Z,986.08
2023-02-24T11:10:59.881Z,986.16
2023-02-24T11:11:59.907Z,986.16
2023-02-24T11:13:09.016Z,986.14
2023-02-24T11:14:00.857Z,986.11
2023-02-24T11:14:59.841Z,986.09
2023-02-24T11:15:59.861Z,986.08
2023-02-24T11:16:59.835Z,985.93
2023-02-24T11:17:59.908Z,985.96
2023-02-24T11:18:59.805Z,986.01
2023-02-24T11:19:59.794Z,986.06
2023-02-24T11:20:59.773Z,985.94
2023-02-24T11:21:59.794Z,985.99
2023-02-24T11:22:59.756Z,985.96
2023-02-24T11:23:59.854Z,985.90
2023-02-24T11:25:01.731Z,985.92
2023-02-24T11:25:59.732Z,985.88
2023-02-24T11:27:02.925Z,985.83
2023-02-24T11:27:59.710Z,985.85
2023-02-24T11:28:59.693Z,985.76
2023-02-24T11:29:59.685Z,985.86
2023-02-24T11:30:59.728Z,985.82
2023-02-24T11:31:59.803Z,985.84
2023-02-24T11:32:59.665Z,985.82
2023-02-24T11:33:59.662Z,985.84
2023-02-24T11:34:59.637Z,985.81
2023-02-24T11:35:59.635Z,985.78
2023-02-24T11:36:59.627Z,985.81
2023-02-24T11:37:59.595Z,985.78
2023-02-24T11:39:15.245Z,985.72
2023-02-24T11:40:00.597Z,985.75
2023-02-24T11:40:59.576Z,985.73
2023-02-24T11:41:59.572Z,985.69
2023-02-24T11:42:59.551Z,985.65
2023-02-24T11:43:59.533Z,985.57
2023-02-24T11:44:59.529Z,985.55
2023-02-24T11:45:59.542Z,985.56
2023-02-24T11:46:59.526Z,985.58
2023-02-24T11:47:59.490Z,985.58
2023-02-24T11:48:59.493Z,985.51
2023-02-24T11:49:59.474Z,985.61
2023-02-24T11:50:59.468Z,985.55
2023-02-24T11:51:59.473Z,985.51
2023-02-24T11:52:59.442Z,985.52
2023-02-24T11:53:59.442Z,985.43
2023-02-24T11:54:59.425Z,985.54
2023-02-24T11:55:59.401Z,985.42
2023-02-24T11:56:59.426Z,985.49
2023-02-24T11:57:59.399Z,985.49
2023-02-24T11:58:59.377Z,985.46
2023-02-24T11:59:59.367Z,985.39
2023-02-24T12:00:59.359Z,985.40
2023-02-24T12:01:59.380Z,985.36
2023-02-24T12:02:59.441Z,985.31
2023-02-24T12:03:59.344Z,985.35
2023-02-24T12:04:59.329Z,985.28
2023-02-24T12:05:59.353Z,985.27
2023-02-24T12:06:59.300Z,985.28
2023-02-24T12:07:59.298Z,985.26
2023-02-24T12:08:59.280Z,985.16
2023-02-24T12:10:14.090Z,985.13
2023-02-24T12:11:00.286Z,985.13
2023-02-24T12:11:59.240Z,985.18
2023-02-24T12:12:59.249Z,985.14
2023-02-24T12:13:59.231Z,985.08
2023-02-24T12:14:59.210Z,985.07
2023-02-24T12:15:59.251Z,985.00
2023-02-24T12:16:59.201Z,984.97
2023-02-24T12:17:59.200Z,984.97
2023-02-24T12:18:59.206Z,984.93
2023-02-24T12:19:59.173Z,984.96
2023-02-24T12:20:59.170Z,984.95
2023-02-24T12:21:59.162Z,984.96
2023-02-24T12:22:59.179Z,985.01
2023-02-24T12:23:59.121Z,984.96
2023-02-24T12:24:59.126Z,984.89
2023-02-24T12:25:59.126Z,984.90
2023-02-24T12:26:59.095Z,984.86
2023-02-24T12:27:59.092Z,984.87